createdAt,value
2018-11-25T00:00:11.243Z,93.70
2018-11-25T00:01:11.700Z,93.70
2018-11-25T00:02:12.171Z,93.70
2018-11-25T00:03:12.637Z,93.74
2018-11-25T00:04:13.106Z,93.73
2018-11-25T00:05:13.580Z,93.74
2018-11-25T00:06:14.047Z,93.74
2018-11-25T00:07:14.517Z,93.75
2018-11-25T00:08:14.983Z,93.75
2018-11-25T00:09:15.453Z,93.75
2018-11-25T00:10:15.925Z,93.76
2018-11-25T00:11:16.390Z,93.76
2018-11-25T00:12:16.858Z,93.76
2018-11-25T00:13:17.332Z,93.71
2018-11-25T00:14:17.798Z,93.75
2018-11-25T00:15:18.265Z,93.76
2018-11-25T00:16:18.736Z,93.74
2018-11-25T00:17:19.205Z,93.80
2018-11-25T00:18:19.679Z,93.80
2018-11-25T00:19:20.145Z,93.80
2018-11-25T00:20:20.613Z,93.81
2018-11-25T00:21:21.079Z,93.81
2018-11-25T00:22:21.549Z,93.79
2018-11-25T00:23:22.020Z,93.77
2018-11-25T00:24:22.488Z,93.77
2018-11-25T00:25:22.960Z,93.77
2018-11-25T00:26:23.428Z,93.76
2018-11-25T00:27:23.893Z,93.72
2018-11-25T00:28:24.364Z,93.71
2018-11-25T00:29:24.831Z,93.67
2018-11-25T00:30:25.306Z,93.68
2018-11-25T00:31:25.770Z,93.69
2018-11-25T00:32:26.238Z,93.65
2018-11-25T00:33:26.706Z,93.65
2018-11-25T00:34:27.178Z,93.68
2018-11-25T00:35:27.643Z,93.68
2018-11-25T00:36:28.112Z,93.68
2018-11-25T00:37:28.581Z,93.68
2018-11-25T00:38:29.051Z,93.68
2018-11-25T00:39:29.525Z,93.68
2018-11-25T00:40:29.989Z,93.69
2018-11-25T00:41:30.457Z,93.66
2018-11-25T00:42:30.932Z,93.64
2018-11-25T00:43:31.397Z,93.64
2018-11-25T00:44:31.870Z,93.63
2018-11-25T00:45:32.334Z,93.59
2018-11-25T00:46:32.803Z,93.62
2018-11-25T00:47:33.272Z,93.62
2018-11-25T00:48:33.736Z,93.64
2018-11-25T00:49:34.206Z,93.62
2018-11-25T00:50:34.674Z,93.64
2018-11-25T00:51:35.144Z,93.62
2018-11-25T00:52:35.613Z,93.62
2018-11-25T00:53:36.083Z,93.57
2018-11-25T00:54:36.550Z,93.56
2018-11-25T00:55:37.019Z,93.58
2018-11-25T00:56:37.487Z,93.58
2018-11-25T00:57:37.956Z,93.56
2018-11-25T00:58:38.426Z,93.56
2018-11-25T00:59:38.897Z,93.55
2018-11-25T01:00:39.368Z,93.55
2018-11-25T01:01:39.829Z,93.55
2018-11-25T01:02:40.298Z,93.51
2018-11-25T01:03:40.768Z,93.54
2018-11-25T01:04:41.236Z,93.50
2018-11-25T01:05:41.709Z,93.47
2018-11-25T01:06:42.178Z,93.44
2018-11-25T01:07:42.641Z,93.44
2018-11-25T01:08:43.111Z,93.48
2018-11-25T01:09:43.581Z,93.52
2018-11-25T01:10:44.047Z,93.48
2018-11-25T01:11:44.531Z,93.49
2018-11-25T01:12:45.061Z,93.51
2018-11-25T01:13:45.464Z,93.48
2018-11-25T01:14:45.930Z,93.46
2018-11-25T01:15:46.391Z,93.48
2018-11-25T01:16:46.861Z,93.48
2018-11-25T01:17:47.328Z,93.48
2018-11-25T01:18:47.801Z,93.50
2018-11-25T01:19:48.266Z,93.50
2018-11-25T01:20:48.733Z,93.48
2018-11-25T01:21:49.201Z,93.44
2018-11-25T01:22:49.674Z,93.43
2018-11-25T01:23:50.138Z,93.39
2018-11-25T01:24:50.611Z,93.38
2018-11-25T01:25:51.075Z,93.37
2018-11-25T01:26:51.546Z,93.42
2018-11-25T01:27:52.013Z,93.44
2018-11-25T01:28:52.481Z,93.49
2018-11-25T01:29:52.952Z,93.51
2018-11-25T01:30:53.418Z,93.52
2018-11-25T01:31:53.887Z,93.51
2018-11-25T01:32:54.355Z,93.49
2018-11-25T01:33:54.822Z,93.45
2018-11-25T01:35:00.886Z,93.45
2018-11-25T01:35:55.761Z,93.44
2018-11-25T01:36:56.231Z,93.44
2018-11-25T01:37:56.697Z,93.40
2018-11-25T01:38:57.168Z,93.30
2018-11-25T01:39:57.639Z,93.24
2018-11-25T01:40:58.106Z,93.23
2018-11-25T01:41:58.572Z,93.27
2018-11-25T01:42:59.041Z,93.31
2018-11-25T01:43:59.508Z,93.31
2018-11-25T01:44:59.976Z,93.31
2018-11-25T01:46:00.446Z,93.23
2018-11-25T01:47:00.914Z,93.12
2018-11-25T01:48:01.382Z,93.05
2018-11-25T01:49:01.854Z,92.97
2018-11-25T01:50:02.320Z,93.04
2018-11-25T01:51:02.790Z,93.17
2018-11-25T01:52:03.255Z,93.19
2018-11-25T01:53:03.721Z,93.13
2018-11-25T01:54:04.191Z,93.01
2018-11-25T01:55:04.660Z,92.92
2018-11-25T01:56:05.133Z,92.86
2018-11-25T01:57:05.597Z,92.87
2018-11-25T01:58:06.067Z,92.90
2018-11-25T01:59:06.533Z,92.94
2018-11-25T02:00:07.002Z,92.95
2018-11-25T02:01:07.471Z,92.96
2018-11-25T02:02:07.944Z,92.96
2018-11-25T02:03:08.408Z,92.93
2018-11-25T02:04:08.876Z,92.86
2018-11-25T02:05:09.350Z,92.77
2018-11-25T02:06:09.811Z,92.76
2018-11-25T02:07:10.280Z,92.73
2018-11-25T02:08:10.751Z,92.67
2018-11-25T02:09:11.217Z,92.57
2018-11-25T02:10:11.686Z,92.54
2018-11-25T02:11:12.154Z,92.55
2018-11-25T02:12:12.622Z,92.51
2018-11-25T02:13:13.091Z,92.41
2018-11-25T02:14:13.560Z,92.32
2018-11-25T02:15:14.027Z,92.28
2018-11-25T02:16:14.495Z,92.25
2018-11-25T02:17:14.964Z,92.01
2018-11-25T02:18:15.433Z,91.82
2018-11-25T02:19:15.900Z,91.71
2018-11-25T02:20:16.368Z,91.56
2018-11-25T02:21:16.837Z,91.48
2018-11-25T02:22:17.306Z,91.28
2018-11-25T02:23:17.772Z,91.04
2018-11-25T02:24:18.240Z,90.72
2018-11-25T02:25:18.721Z,90.53
2018-11-25T02:26:19.177Z,90.42
2018-11-25T02:27:19.645Z,90.07
2018-11-25T02:28:20.113Z,89.74
2018-11-25T02:29:20.580Z,89.43
2018-11-25T02:30:21.062Z,89.25
2018-11-25T02:31:21.519Z,89.05
2018-11-25T02:32:21.984Z,89.01
2018-11-25T02:33:22.453Z,88.65
2018-11-25T02:34:22.922Z,87.85
2018-11-25T02:35:23.390Z,87.51
2018-11-25T02:36:23.858Z,86.71
2018-11-25T02:37:24.325Z,86.03
2018-11-25T02:38:24.794Z,85.36
2018-11-25T02:39:25.262Z,85.27
2018-11-25T02:40:25.729Z,85.89
2018-11-25T02:41:26.200Z,83.52
2018-11-25T02:42:26.670Z,83.06
2018-11-25T02:43:27.138Z,82.36
2018-11-25T02:44:27.604Z,81.92
2018-11-25T02:45:28.076Z,81.63
2018-11-25T02:46:28.540Z,81.50
2018-11-25T02:47:29.011Z,79.26
2018-11-25T02:48:29.476Z,75.80
2018-11-25T02:49:29.947Z,74.37
2018-11-25T02:50:30.419Z,72.46
2018-11-25T02:51:30.885Z,73.64
2018-11-25T02:52:31.349Z,71.72
2018-11-25T02:53:31.817Z,74.48
2018-11-25T02:54:32.287Z,73.77
2018-11-25T02:55:32.754Z,72.40
2018-11-25T02:56:33.221Z,72.86
2018-11-25T02:57:33.689Z,72.34
2018-11-25T02:58:34.159Z,71.61
2018-11-25T02:59:34.627Z,69.78
2018-11-25T03:00:35.093Z,69.04
2018-11-25T03:01:35.565Z,68.96
2018-11-25T03:02:36.031Z,67.72
2018-11-25T03:03:36.505Z,66.69
2018-11-25T03:04:36.965Z,63.95
2018-11-25T03:05:37.487Z,63.02
2018-11-25T03:06:37.902Z,63.15
2018-11-25T03:07:38.370Z,61.62
2018-11-25T03:08:38.837Z,61.58
2018-11-25T03:09:39.307Z,60.12
2018-11-25T03:10:39.774Z,58.23
2018-11-25T03:11:40.243Z,58.54
2018-11-25T03:12:40.710Z,58.59
2018-11-25T03:13:41.179Z,57.71
2018-11-25T03:14:41.646Z,55.38
2018-11-25T03:15:42.115Z,53.53
2018-11-25T03:16:42.587Z,54.28
2018-11-25T03:17:43.051Z,56.53
2018-11-25T03:18:43.520Z,55.02
2018-11-25T03:19:43.988Z,55.23
2018-11-25T03:20:44.514Z,56.83
2018-11-25T03:21:44.959Z,54.12
2018-11-25T03:22:45.396Z,54.83
2018-11-25T03:23:45.860Z,57.15
2018-11-25T03:24:46.327Z,58.61
2018-11-25T03:25:46.798Z,55.74
2018-11-25T03:26:47.263Z,56.61
2018-11-25T03:27:47.729Z,57.56
2018-11-25T03:28:48.197Z,58.20
2018-11-25T03:29:48.669Z,58.17
2018-11-25T03:30:49.136Z,58.41
2018-11-25T03:31:49.601Z,57.06
2018-11-25T03:32:50.072Z,57.71
2018-11-25T03:33:50.538Z,57.65
2018-11-25T03:34:51.010Z,57.75
2018-11-25T03:35:51.476Z,58.89
2018-11-25T03:36:51.941Z,55.92
2018-11-25T03:37:52.413Z,55.68
2018-11-25T03:38:52.878Z,57.62
2018-11-25T03:39:53.347Z,58.94
2018-11-25T03:40:53.813Z,55.11
2018-11-25T03:41:54.280Z,53.41
2018-11-25T03:42:54.750Z,52.99
2018-11-25T03:43:55.218Z,51.87
2018-11-25T03:44:55.686Z,52.02
2018-11-25T03:45:56.153Z,51.88
2018-11-25T03:46:56.620Z,48.54
2018-11-25T03:47:57.090Z,49.78
2018-11-25T03:48:57.556Z,47.15
2018-11-25T03:49:58.023Z,48.16
2018-11-25T03:50:58.491Z,49.64
2018-11-25T03:51:58.960Z,51.84
2018-11-25T03:52:59.427Z,51.77
2018-11-25T03:53:59.896Z,50.10
2018-11-25T03:55:00.366Z,50.40
2018-11-25T03:56:00.831Z,52.16
2018-11-25T03:57:01.299Z,53.31
2018-11-25T03:58:01.766Z,53.78
2018-11-25T03:59:02.235Z,54.76
2018-11-25T04:00:02.704Z,56.36
2018-11-25T04:01:03.171Z,56.79
2018-11-25T04:02:03.639Z,57.34
2018-11-25T04:03:04.107Z,58.48
2018-11-25T04:04:04.574Z,59.17
2018-11-25T04:05:05.040Z,60.75
2018-11-25T04:06:05.511Z,61.76
2018-11-25T04:07:05.978Z,62.18
2018-11-25T04:08:06.445Z,62.94
2018-11-25T04:09:06.911Z,64.06
2018-11-25T04:10:07.379Z,62.57
2018-11-25T04:11:07.849Z,64.65
2018-11-25T04:12:08.317Z,64.58
2018-11-25T04:13:08.782Z,63.92
2018-11-25T04:14:09.251Z,62.74
2018-11-25T04:15:09.720Z,62.90
2018-11-25T04:16:10.188Z,62.93
2018-11-25T04:17:10.655Z,63.37
2018-11-25T04:18:11.120Z,64.33
2018-11-25T04:19:11.592Z,64.51
2018-11-25T04:20:12.104Z,64.28
2018-11-25T04:21:12.526Z,64.69
2018-11-25T04:22:12.993Z,64.43
2018-11-25T04:23:13.463Z,63.88
2018-11-25T04:24:13.928Z,61.91
2018-11-25T04:25:14.398Z,66.39
2018-11-25T04:26:14.866Z,63.25
2018-11-25T04:27:15.332Z,60.81
2018-11-25T04:28:15.800Z,59.66
2018-11-25T04:29:16.268Z,60.40
2018-11-25T04:30:16.745Z,61.30
2018-11-25T04:31:17.206Z,61.34
2018-11-25T04:32:17.671Z,59.92
2018-11-25T04:33:18.140Z,59.30
2018-11-25T04:34:18.606Z,57.49
2018-11-25T04:35:19.073Z,52.97
2018-11-25T04:36:19.543Z,52.02
2018-11-25T04:37:20.008Z,52.56
2018-11-25T04:38:20.477Z,52.14
2018-11-25T04:39:20.947Z,52.00
2018-11-25T04:40:21.411Z,52.88
2018-11-25T04:41:21.878Z,53.03
2018-11-25T04:42:22.347Z,54.05
2018-11-25T04:43:22.815Z,54.69
2018-11-25T04:44:23.336Z,54.36
2018-11-25T04:45:23.749Z,53.07
2018-11-25T04:46:24.220Z,52.78
2018-11-25T04:47:24.685Z,53.89
2018-11-25T04:48:25.154Z,54.60
2018-11-25T04:49:25.673Z,53.30
2018-11-25T04:50:26.089Z,54.22
2018-11-25T04:51:26.556Z,55.39
2018-11-25T04:52:27.028Z,56.00
2018-11-25T04:53:27.490Z,56.13
2018-11-25T04:54:27.960Z,55.30
2018-11-25T04:55:28.427Z,54.86
2018-11-25T04:56:28.893Z,55.66
2018-11-25T04:57:29.362Z,55.72
2018-11-25T04:58:29.829Z,56.36
2018-11-25T04:59:30.302Z,54.39
2018-11-25T05:00:30.766Z,53.32
2018-11-25T05:01:31.235Z,53.23
2018-11-25T05:02:31.700Z,51.80
2018-11-25T05:03:32.167Z,51.89
2018-11-25T05:04:32.637Z,52.32
2018-11-25T05:05:33.100Z,52.06
2018-11-25T05:06:33.571Z,51.20
2018-11-25T05:07:34.037Z,50.17
2018-11-25T05:08:34.503Z,49.49
2018-11-25T05:09:34.971Z,48.57
2018-11-25T05:10:35.440Z,48.54
2018-11-25T05:11:35.909Z,48.62
2018-11-25T05:12:36.375Z,47.28
2018-11-25T05:13:36.847Z,46.39
2018-11-25T05:14:37.310Z,46.01
2018-11-25T05:15:37.778Z,46.11
2018-11-25T05:16:38.248Z,45.43
2018-11-25T05:17:38.711Z,44.78
2018-11-25T05:18:39.182Z,45.26
2018-11-25T05:19:39.649Z,45.60
2018-11-25T05:20:40.116Z,46.77
2018-11-25T05:21:40.580Z,46.26
2018-11-25T05:22:41.049Z,45.30
2018-11-25T05:23:41.517Z,43.34
2018-11-25T05:24:41.984Z,38.29
2018-11-25T05:25:42.454Z,38.26
2018-11-25T05:26:42.920Z,43.12
2018-11-25T05:27:43.386Z,44.37
2018-11-25T05:28:43.854Z,41.53
2018-11-25T05:29:44.319Z,38.71
2018-11-25T05:30:44.791Z,38.34
2018-11-25T05:31:45.256Z,37.68
2018-11-25T05:32:45.721Z,36.90
2018-11-25T05:33:46.192Z,35.73
2018-11-25T05:34:46.719Z,35.11
2018-11-25T05:35:47.126Z,35.17
2018-11-25T05:36:47.594Z,35.09
2018-11-25T05:37:48.058Z,35.05
2018-11-25T05:38:48.528Z,34.83
2018-11-25T05:39:48.997Z,34.89
2018-11-25T05:40:49.462Z,35.05
2018-11-25T05:41:49.929Z,35.14
2018-11-25T05:42:50.396Z,34.57
2018-11-25T05:43:50.864Z,34.92
2018-11-25T05:44:51.330Z,34.45
2018-11-25T05:45:51.798Z,34.51
2018-11-25T05:46:52.266Z,34.20
2018-11-25T05:47:52.734Z,34.77
2018-11-25T05:48:53.202Z,34.32
2018-11-25T05:49:53.666Z,34.89
2018-11-25T05:50:54.163Z,34.29
2018-11-25T05:51:54.602Z,34.01
2018-11-25T05:52:55.071Z,33.79
2018-11-25T05:53:55.537Z,34.27
2018-11-25T05:54:56.005Z,33.88
2018-11-25T05:55:56.473Z,33.25
2018-11-25T05:56:56.943Z,32.48
2018-11-25T05:57:57.404Z,31.52
2018-11-25T05:58:57.874Z,31.26
2018-11-25T05:59:58.341Z,30.88
2018-11-25T06:00:58.809Z,31.65
2018-11-25T06:01:59.276Z,31.29
2018-11-25T06:02:59.744Z,30.16
2018-11-25T06:04:00.211Z,31.40
2018-11-25T06:05:00.679Z,30.75
2018-11-25T06:06:01.144Z,31.49
2018-11-25T06:07:01.611Z,30.16
2018-11-25T06:08:02.079Z,30.19
2018-11-25T06:09:02.546Z,30.23
2018-11-25T06:10:03.013Z,30.20
2018-11-25T06:11:03.480Z,29.38
2018-11-25T06:12:03.951Z,29.71
2018-11-25T06:13:04.416Z,29.84
2018-11-25T06:14:04.883Z,29.71
2018-11-25T06:15:05.348Z,29.52
2018-11-25T06:16:05.815Z,26.69
2018-11-25T06:17:06.284Z,28.94
2018-11-25T06:18:06.751Z,29.40
2018-11-25T06:19:07.221Z,28.47
2018-11-25T06:20:07.688Z,28.38
2018-11-25T06:21:08.153Z,28.47
2018-11-25T06:22:08.621Z,29.65
2018-11-25T06:23:09.093Z,29.26
2018-11-25T06:24:09.555Z,27.61
2018-11-25T06:25:10.042Z,27.42
2018-11-25T06:26:10.488Z,28.29
2018-11-25T06:27:10.954Z,28.39
2018-11-25T06:28:11.422Z,29.97
2018-11-25T06:29:11.890Z,30.08
2018-11-25T06:30:12.358Z,28.14
2018-11-25T06:31:12.824Z,28.25
2018-11-25T06:32:13.291Z,27.82
2018-11-25T06:33:13.759Z,28.49
2018-11-25T06:34:14.226Z,29.94
2018-11-25T06:35:14.695Z,27.83
2018-11-25T06:36:15.161Z,26.63
2018-11-25T06:37:15.631Z,28.56
2018-11-25T06:38:16.095Z,28.49
2018-11-25T06:39:16.563Z,27.80
2018-11-25T06:40:17.031Z,29.83
2018-11-25T06:41:17.499Z,26.89
2018-11-25T06:42:17.963Z,28.48
2018-11-25T06:43:18.430Z,27.49
2018-11-25T06:44:18.898Z,27.49
2018-11-25T06:45:19.367Z,27.56
2018-11-25T06:46:19.831Z,27.43
2018-11-25T06:47:20.299Z,27.30
2018-11-25T06:48:20.766Z,27.70
2018-11-25T06:49:21.233Z,29.61
2018-11-25T06:50:21.700Z,30.80
2018-11-25T06:51:22.167Z,30.23
2018-11-25T06:52:22.634Z,30.20
2018-11-25T06:53:23.103Z,28.63
2018-11-25T06:54:23.569Z,27.95
2018-11-25T06:55:24.036Z,29.72
2018-11-25T06:56:27.498Z,29.06
2018-11-25T06:57:24.969Z,28.60
2018-11-25T06:58:25.437Z,27.91
2018-11-25T06:59:25.904Z,27.26
2018-11-25T07:00:26.372Z,26.10
2018-11-25T07:01:26.840Z,27.71
2018-11-25T07:02:27.307Z,27.28
2018-11-25T07:03:27.773Z,28.82
2018-11-25T07:04:28.289Z,28.02
2018-11-25T07:05:28.707Z,27.62
2018-11-25T07:06:29.174Z,26.50
2018-11-25T07:07:29.641Z,26.31
2018-11-25T07:08:30.107Z,25.51
2018-11-25T07:09:30.575Z,24.55
2018-11-25T07:10:31.044Z,24.59
2018-11-25T07:11:31.510Z,26.07
2018-11-25T07:12:31.978Z,25.39
2018-11-25T07:13:32.442Z,28.38
2018-11-25T07:14:32.910Z,24.61
2018-11-25T07:15:33.377Z,24.99
2018-11-25T07:16:33.843Z,23.25
2018-11-25T07:17:34.312Z,25.42
2018-11-25T07:18:34.776Z,26.01
2018-11-25T07:19:35.245Z,25.06
2018-11-25T07:20:35.711Z,22.64
2018-11-25T07:21:36.181Z,23.13
2018-11-25T07:22:36.647Z,22.73
2018-11-25T07:23:37.115Z,23.07
2018-11-25T07:24:37.582Z,23.95
2018-11-25T07:25:38.048Z,24.65
2018-11-25T07:26:38.514Z,23.49
2018-11-25T07:27:38.983Z,22.65
2018-11-25T07:28:39.450Z,23.67
2018-11-25T07:29:39.916Z,24.68
2018-11-25T07:30:40.382Z,24.07
2018-11-25T07:31:40.849Z,25.11
2018-11-25T07:32:41.318Z,26.30
2018-11-25T07:33:41.786Z,25.06
2018-11-25T07:34:42.252Z,24.59
2018-11-25T07:35:42.720Z,23.39
2018-11-25T07:36:43.185Z,27.18
2018-11-25T07:37:43.654Z,25.63
2018-11-25T07:38:44.123Z,23.72
2018-11-25T07:39:44.654Z,24.94
2018-11-25T07:40:45.064Z,25.55
2018-11-25T07:41:45.543Z,26.54
2018-11-25T07:42:45.989Z,25.50
2018-11-25T07:43:46.455Z,24.53
2018-11-25T07:44:46.925Z,23.72
2018-11-25T07:45:47.392Z,25.61
2018-11-25T07:46:47.857Z,24.60
2018-11-25T07:47:48.327Z,24.40
2018-11-25T07:48:48.823Z,26.88
2018-11-25T07:49:49.258Z,26.40
2018-11-25T07:50:49.779Z,25.53
2018-11-25T07:51:50.194Z,24.73
2018-11-25T07:52:50.660Z,24.60
2018-11-25T07:53:51.132Z,24.67
2018-11-25T07:54:51.595Z,23.46
2018-11-25T07:55:52.093Z,25.95
2018-11-25T07:56:52.533Z,26.41
2018-11-25T07:57:53.001Z,24.39
2018-11-25T07:58:53.464Z,27.01
2018-11-25T07:59:53.931Z,24.86
2018-11-25T08:00:54.401Z,26.40
2018-11-25T08:01:54.868Z,25.13
2018-11-25T08:02:55.336Z,24.46
2018-11-25T08:03:55.802Z,27.34
2018-11-25T08:04:56.270Z,26.50
2018-11-25T08:05:56.737Z,25.67
2018-11-25T08:06:57.204Z,28.29
2018-11-25T08:07:57.673Z,27.99
2018-11-25T08:08:58.140Z,25.80
2018-11-25T08:09:58.606Z,26.87
2018-11-25T08:10:59.074Z,25.97
2018-11-25T08:11:59.545Z,26.08
2018-11-25T08:13:00.017Z,24.81
2018-11-25T08:14:00.477Z,26.43
2018-11-25T08:15:00.944Z,26.22
2018-11-25T08:16:01.415Z,25.62
2018-11-25T08:17:01.881Z,26.03
2018-11-25T08:18:02.349Z,25.56
2018-11-25T08:19:02.816Z,25.90
2018-11-25T08:20:03.283Z,25.90
2018-11-25T08:21:03.754Z,26.29
2018-11-25T08:22:04.220Z,26.62
2018-11-25T08:23:04.685Z,24.88
2018-11-25T08:24:05.155Z,26.09
2018-11-25T08:25:05.627Z,22.28
2018-11-25T08:26:06.091Z,25.51
2018-11-25T08:27:06.562Z,25.50
2018-11-25T08:28:07.027Z,25.09
2018-11-25T08:29:07.498Z,26.29
2018-11-25T08:30:07.964Z,26.69
2018-11-25T08:31:08.434Z,25.15
2018-11-25T08:32:08.900Z,25.46
2018-11-25T08:33:09.371Z,26.90
2018-11-25T08:34:09.837Z,26.29
2018-11-25T08:35:10.304Z,26.26
2018-11-25T08:36:10.770Z,24.65
2018-11-25T08:37:11.240Z,23.41
2018-11-25T08:38:11.708Z,24.60
2018-11-25T08:39:12.176Z,23.55
2018-11-25T08:40:12.645Z,23.24
2018-11-25T08:41:13.113Z,22.67
2018-11-25T08:42:13.580Z,22.60
2018-11-25T08:43:14.048Z,23.34
2018-11-25T08:44:14.518Z,24.49
2018-11-25T08:45:14.985Z,24.15
2018-11-25T08:46:15.460Z,24.82
2018-11-25T08:47:15.922Z,24.22
2018-11-25T08:48:16.388Z,26.02
2018-11-25T08:49:16.860Z,24.41
2018-11-25T08:50:17.326Z,23.60
2018-11-25T08:51:17.795Z,25.09
2018-11-25T08:52:18.265Z,23.37
2018-11-25T08:53:18.732Z,23.68
2018-11-25T08:54:19.202Z,23.13
2018-11-25T08:55:19.671Z,23.47
2018-11-25T08:56:20.139Z,25.50
2018-11-25T08:57:20.607Z,23.30
2018-11-25T08:58:21.078Z,24.56
2018-11-25T08:59:21.544Z,24.49
2018-11-25T09:00:22.012Z,25.40
2018-11-25T09:01:22.487Z,25.50
2018-11-25T09:02:22.951Z,25.83
2018-11-25T09:03:23.419Z,26.43
2018-11-25T09:04:23.889Z,26.63
2018-11-25T09:05:24.357Z,27.20
2018-11-25T09:06:24.832Z,27.44
2018-11-25T09:07:25.294Z,26.97
2018-11-25T09:08:25.766Z,25.44
2018-11-25T09:09:26.232Z,25.17
2018-11-25T09:10:26.704Z,25.71
2018-11-25T09:11:27.170Z,25.84
2018-11-25T09:12:27.640Z,26.90
2018-11-25T09:13:28.107Z,26.99
2018-11-25T09:14:28.577Z,25.82
2018-11-25T09:15:29.045Z,25.68
2018-11-25T09:16:29.514Z,27.68
2018-11-25T09:17:29.985Z,27.21
2018-11-25T09:18:30.454Z,27.40
2018-11-25T09:19:30.922Z,26.07
2018-11-25T09:20:31.393Z,27.74
2018-11-25T09:21:31.865Z,27.47
2018-11-25T09:22:32.331Z,27.28
2018-11-25T09:23:32.799Z,27.67
2018-11-25T09:24:33.268Z,25.68
2018-11-25T09:25:33.739Z,23.98
2018-11-25T09:26:34.209Z,25.50
2018-11-25T09:27:34.678Z,25.44
2018-11-25T09:28:35.146Z,27.13
2018-11-25T09:29:35.618Z,26.49
2018-11-25T09:30:36.088Z,24.75
2018-11-25T09:31:36.560Z,27.43
2018-11-25T09:32:37.025Z,27.30
2018-11-25T09:33:37.497Z,26.73
2018-11-25T09:34:37.964Z,27.23
2018-11-25T09:35:38.435Z,27.76
2018-11-25T09:36:38.905Z,28.09
2018-11-25T09:37:39.377Z,27.75
2018-11-25T09:38:39.843Z,26.22
2018-11-25T09:39:40.312Z,25.60
2018-11-25T09:40:40.782Z,27.17
2018-11-25T09:41:41.255Z,25.30
2018-11-25T09:42:41.724Z,23.69
2018-11-25T09:43:42.193Z,22.06
2018-11-25T09:44:42.661Z,25.92
2018-11-25T09:45:43.132Z,26.85
2018-11-25T09:46:43.601Z,25.24
2018-11-25T09:47:44.093Z,24.93
2018-11-25T09:48:44.589Z,23.11
2018-11-25T09:49:45.013Z,22.54
2018-11-25T09:50:45.495Z,22.95
2018-11-25T09:51:45.953Z,24.61
2018-11-25T09:52:46.425Z,25.37
2018-11-25T09:53:47.115Z,26.03
2018-11-25T09:54:47.364Z,26.10
2018-11-25T09:55:47.832Z,25.29
2018-11-25T09:56:48.305Z,23.00
2018-11-25T09:57:48.774Z,24.91
2018-11-25T09:58:49.244Z,23.76
2018-11-25T09:59:49.718Z,23.29
2018-11-25T10:00:50.184Z,23.63
2018-11-25T10:01:50.656Z,23.60
2018-11-25T10:02:51.127Z,24.31
2018-11-25T10:03:51.596Z,25.38
2018-11-25T10:04:52.066Z,22.95
2018-11-25T10:05:52.541Z,23.09
2018-11-25T10:06:53.008Z,23.57
2018-11-25T10:07:53.485Z,23.03
2018-11-25T10:08:53.947Z,23.30
2018-11-25T10:09:54.420Z,24.78
2018-11-25T10:10:54.891Z,22.14
2018-11-25T10:11:55.365Z,23.10
2018-11-25T10:12:55.829Z,23.13
2018-11-25T10:13:56.302Z,23.27
2018-11-25T10:14:56.773Z,23.09
2018-11-25T10:15:57.244Z,23.63
2018-11-25T10:16:57.714Z,22.96
2018-11-25T10:17:59.969Z,23.91
2018-11-25T10:18:58.657Z,22.41
2018-11-25T10:19:59.126Z,24.04
2018-11-25T10:20:59.598Z,22.48
2018-11-25T10:22:00.068Z,23.23
2018-11-25T10:23:00.542Z,23.61
2018-11-25T10:24:01.010Z,21.47
2018-11-25T10:25:01.484Z,21.43
2018-11-25T10:26:01.951Z,21.71
2018-11-25T10:27:02.426Z,21.61
2018-11-25T10:28:02.892Z,24.60
2018-11-25T10:29:03.363Z,22.42
2018-11-25T10:30:03.835Z,23.99
2018-11-25T10:31:04.304Z,22.49
2018-11-25T10:32:04.777Z,22.56
2018-11-25T10:33:05.249Z,23.11
2018-11-25T10:34:05.722Z,25.41
2018-11-25T10:35:06.189Z,22.90
2018-11-25T10:36:06.662Z,22.36
2018-11-25T10:37:07.183Z,20.64
2018-11-25T10:38:07.603Z,25.48
2018-11-25T10:39:08.075Z,24.53
2018-11-25T10:40:08.545Z,22.77
2018-11-25T10:41:09.016Z,23.45
2018-11-25T10:42:09.487Z,22.30
2018-11-25T10:43:09.959Z,21.17
2018-11-25T10:44:10.429Z,21.03
2018-11-25T10:45:10.901Z,22.91
2018-11-25T10:46:11.371Z,21.95
2018-11-25T10:47:11.846Z,22.26
2018-11-25T10:48:12.314Z,21.82
2018-11-25T10:49:12.787Z,23.39
2018-11-25T10:50:13.257Z,22.30
2018-11-25T10:51:13.729Z,22.74
2018-11-25T10:52:14.200Z,21.75
2018-11-25T10:53:14.671Z,22.43
2018-11-25T10:54:15.142Z,20.20
2018-11-25T10:55:15.615Z,21.69
2018-11-25T10:56:16.801Z,22.67
2018-11-25T10:57:16.559Z,23.65
2018-11-25T10:58:17.029Z,23.51
2018-11-25T10:59:17.508Z,20.29
2018-11-25T11:00:17.971Z,22.29
2018-11-25T11:01:18.443Z,23.82
2018-11-25T11:02:18.914Z,23.30
2018-11-25T11:03:19.386Z,22.79
2018-11-25T11:04:19.858Z,22.96
2018-11-25T11:05:20.331Z,24.79
2018-11-25T11:06:20.801Z,24.52
2018-11-25T11:07:21.273Z,22.96
2018-11-25T11:08:21.744Z,24.59
2018-11-25T11:09:22.221Z,22.38
2018-11-25T11:10:22.689Z,22.51
2018-11-25T11:11:23.162Z,21.14
2018-11-25T11:12:23.629Z,22.21
2018-11-25T11:13:24.102Z,21.38
2018-11-25T11:14:24.576Z,23.29
2018-11-25T11:15:25.049Z,22.44
2018-11-25T11:16:25.517Z,23.09
2018-11-25T11:17:25.990Z,23.36
2018-11-25T11:18:26.461Z,23.53
2018-11-25T11:19:26.934Z,24.44
2018-11-25T11:20:27.405Z,24.79
2018-11-25T11:21:27.879Z,21.18
2018-11-25T11:22:28.351Z,23.38
2018-11-25T11:23:28.821Z,24.12
2018-11-25T11:24:29.295Z,23.34
2018-11-25T11:25:29.768Z,21.70
2018-11-25T11:26:30.240Z,20.71
2018-11-25T11:27:30.708Z,21.98
2018-11-25T11:28:31.181Z,21.91
2018-11-25T11:29:31.655Z,20.64
2018-11-25T11:30:32.125Z,23.10
2018-11-25T11:31:32.597Z,21.67
2018-11-25T11:32:33.070Z,22.18
2018-11-25T11:33:33.542Z,21.06
2018-11-25T11:34:34.012Z,21.40
2018-11-25T11:35:34.484Z,23.15
2018-11-25T11:36:34.957Z,23.45
2018-11-25T11:37:35.428Z,19.79
2018-11-25T11:38:35.901Z,19.27
2018-11-25T11:39:36.371Z,22.71
2018-11-25T11:40:36.845Z,22.13
2018-11-25T11:41:37.327Z,20.72
2018-11-25T11:42:37.790Z,22.99
2018-11-25T11:43:38.266Z,19.76
2018-11-25T11:44:38.732Z,20.91
2018-11-25T11:45:39.202Z,20.46
2018-11-25T11:46:39.675Z,20.59
2018-11-25T11:47:40.152Z,21.76
2018-11-25T11:48:40.620Z,22.23
2018-11-25T11:49:41.091Z,20.25
2018-11-25T11:50:41.569Z,21.49
2018-11-25T11:51:42.038Z,21.11
2018-11-25T11:52:42.507Z,22.34
2018-11-25T11:53:42.981Z,21.42
2018-11-25T11:54:43.450Z,20.11
2018-11-25T11:55:43.924Z,23.80
2018-11-25T11:56:44.396Z,22.24
2018-11-25T11:57:44.878Z,20.24
2018-11-25T11:58:45.352Z,20.66
2018-11-25T11:59:45.814Z,22.58
2018-11-25T12:00:46.285Z,22.18
2018-11-25T12:01:46.759Z,19.36
2018-11-25T12:02:47.229Z,19.91
2018-11-25T12:03:47.701Z,19.22
2018-11-25T12:04:48.178Z,21.49
2018-11-25T12:05:48.646Z,20.25
2018-11-25T12:06:49.118Z,19.49
2018-11-25T12:07:49.592Z,22.58
2018-11-25T12:08:50.067Z,19.08
2018-11-25T12:09:50.535Z,19.92
2018-11-25T12:10:51.008Z,20.53
2018-11-25T12:11:51.486Z,19.42
2018-11-25T12:12:51.952Z,20.87
2018-11-25T12:13:52.428Z,20.74
2018-11-25T12:14:52.897Z,21.73
2018-11-25T12:15:53.368Z,21.42
2018-11-25T12:16:53.840Z,21.28
2018-11-25T12:17:54.312Z,22.31
2018-11-25T12:18:54.786Z,22.10
2018-11-25T12:19:55.256Z,21.90
2018-11-25T12:20:55.729Z,23.91
2018-11-25T12:21:58.322Z,21.49
2018-11-25T12:22:56.674Z,20.12
2018-11-25T12:23:57.149Z,20.74
2018-11-25T12:24:57.617Z,19.63
2018-11-25T12:25:58.091Z,21.22
2018-11-25T12:26:58.562Z,21.23
2018-11-25T12:27:59.035Z,21.64
2018-11-25T12:28:59.506Z,21.70
2018-11-25T12:29:59.979Z,20.88
2018-11-25T12:31:00.449Z,19.98
2018-11-25T12:32:00.920Z,21.64
2018-11-25T12:33:01.390Z,21.15
2018-11-25T12:34:01.863Z,20.33
2018-11-25T12:35:02.334Z,22.22
2018-11-25T12:36:02.803Z,21.57
2018-11-25T12:37:03.274Z,19.33
2018-11-25T12:38:03.746Z,21.71
2018-11-25T12:39:04.212Z,19.95
2018-11-25T12:40:04.680Z,22.05
2018-11-25T12:41:05.150Z,19.43
2018-11-25T12:42:05.621Z,21.68
2018-11-25T12:43:06.088Z,22.02
2018-11-25T12:44:06.560Z,20.54
2018-11-25T12:45:07.025Z,20.27
2018-11-25T12:46:07.495Z,19.99
2018-11-25T12:47:07.964Z,21.47
2018-11-25T12:48:08.433Z,20.33
2018-11-25T12:49:08.898Z,22.46
2018-11-25T12:50:09.367Z,21.16
2018-11-25T12:51:09.836Z,20.50
2018-11-25T12:52:10.306Z,20.39
2018-11-25T12:53:10.772Z,21.21
2018-11-25T12:54:11.240Z,20.93
2018-11-25T12:55:11.711Z,21.75
2018-11-25T12:56:12.178Z,20.76
2018-11-25T12:57:12.645Z,23.26
2018-11-25T12:58:13.169Z,21.41